Lake Charles Regional Airport
KLCH : now visible

Airfield :











YOU CAN JOIN US ON...

 
LOGIN :

Register | Disclaimer

   EN    FR    IT 

 









Legend :    VFR   Marginal VFR   IFR   Intensive IFR   Very Intensive IFR
Visi :
Ceiling :
>= 8 km
>= 3000ft
5 to 8 km
1000 to 3000 ft
1500m to 5 km
500 to 1000 ft
800 to 1500m
200 to 500 ft
< 800m
< 200 ft
Symbols :   Thunderstorms  Fog  Heavy snow  Heavy precipitations  Wind > 20 kt






- Airport Elevation : 15 ft
- IATA code : LCH


KLCH - Lake Charles Regional

CURRENT METAR :
  • 251837Z AUTO 04004KT 10SM SCT018 OVC043 21/15 A2998 RMK AO2 T02060150 $

EXPIRED METARs :
  • 251805Z AUTO 01003KT 9SM OVC019 20/14 A3001 RMK AO2 T02000144 $
  • 251753Z AUTO 01003KT 9SM BKN021 OVC050 19/14 A3001 RMK AO2 SLP170 T01940144 10200 20139 58009 $
  • 251709Z AUTO 00000KT 10SM FEW013 SCT050 19/14 A3002 RMK AO2 T01890139 $
  • 251653Z AUTO 00000KT 10SM BKN012 BKN055 17/14 A3003 RMK AO2 SLP176 T01720139 $
  • 251621Z AUTO 00000KT 9SM OVC010 17/14 A3004 RMK AO2 T01670139 $
  • 251553Z AUTO 02003KT 9SM OVC006 16/14 A3004 RMK AO2 CIG 006V010 SLP181 T01560139 $

TAF KLCH
Valid from the 25 at 18:00 until the 26 at 18:00 UTC


251726Z 2518/2618 VRB04KT P6SM SCT015 BKN050
FM260000 VRB04KT P6SM BKN025
FM260200 09006KT 5SM BR OVC015
TEMPO 2609/2613 2SM BR BKN007
KZHU FIR / North America



MET'MAP, your aeronautical weather chart ! - Copyright ORBIFLY December 2007 - Disclaimer

ORBIFLY MET'MAP TEAM :

Programming & Development : Alexandra Zaïnal
Concept & original design : Baudouin d'Aumeries
Assistance for programming : Marc-Olivier Méhu
Technical & hardware support : Manuel Goepfert

Contact : metmap@orbifly.com




SOURCES & CREDITS :

   NOAA       Earth
Advisory